Time;durP1;ratioP1;P1;durP2;ratioP2;P2;SDS_P1;SDS_P2;PMS_P1;PMS_P2;Temp;Humidity;BMP_temperature;BMP_pressure;BME280_temperature;BME280_humidity;BME280_pressure;Samples;Min_cycle;Max_cycle;Signal;HPM_P1;HPM_P2
2023/03/09 16:46:19;;;;;;;17.08;8.07;;;2.70;99.90;;;;;;5088826;28;20330;-64
2023/03/09 16:48:46;;;;;;;17.05;7.75;;;2.60;99.90;;;;;;5081152;28;20028;-64
2023/03/09 16:51:14;;;;;;;19.25;8.50;;;2.70;99.90;;;;;;5070699;28;20055;-64
2023/03/09 16:53:40;;;;;;;21.70;10.70;;;2.80;99.90;;;;;;5081922;28;20033;-64
2023/03/09 16:56:07;;;;;;;19.55;9.55;;;2.80;99.90;;;;;;5083369;28;20035;-64
2023/03/09 16:58:34;;;;;;;18.05;8.82;;;2.90;99.90;;;;;;5067438;28;20098;-65
2023/03/09 17:01:01;;;;;;;17.33;8.52;;;3.00;99.90;;;;;;5068332;28;20027;-65
2023/03/09 17:03:27;;;;;;;16.98;7.75;;;3.00;99.90;;;;;;5067737;28;20029;-65
2023/03/09 17:05:53;;;;;;;15.45;8.07;;;3.10;99.90;;;;;;5068659;28;20029;-66
2023/03/09 17:08:19;;;;;;;19.05;9.15;;;3.10;99.90;;;;;;5075981;28;20373;-65
2023/03/09 17:10:46;;;;;;;19.33;9.20;;;3.10;99.90;;;;;;5086946;28;20047;-66
2023/03/09 17:13:12;;;;;;;27.52;11.75;;;3.10;99.90;;;;;;5086951;28;20052;-65
2023/03/09 17:15:38;;;;;;;20.38;10.60;;;3.10;99.90;;;;;;5087683;28;20020;-66
2023/03/09 17:18:04;;;;;;;23.52;10.25;;;3.20;99.90;;;;;;5086480;28;20043;-65
2023/03/09 17:20:29;;;;;;;21.73;10.45;;;3.10;99.90;;;;;;5085391;28;20039;-65
2023/03/09 17:22:55;;;;;;;23.73;10.00;;;3.10;99.90;;;;;;5076336;28;20021;-65
2023/03/09 17:25:22;;;;;;;23.05;11.60;;;3.10;99.90;;;;;;5087252;28;20059;-65
2023/03/09 17:27:48;;;;;;;24.48;11.43;;;3.10;99.90;;;;;;5088099;28;20468;-66
2023/03/09 17:30:21;;;;;;;24.83;11.98;;;3.10;99.90;;;;;;5088187;28;20426;-65
2023/03/09 17:32:47;;;;;;;24.77;12.30;;;3.10;99.90;;;;;;5075660;28;20071;-63
2023/03/09 17:35:13;;;;;;;26.17;11.82;;;3.00;99.90;;;;;;5078600;28;20025;-63
2023/03/09 17:37:39;;;;;;;25.65;12.70;;;3.00;99.90;;;;;;5075481;28;20065;-64
2023/03/09 17:40:09;;;;;;;28.92;12.38;;;3.00;99.90;;;;;;5084496;28;20036;-66
2023/03/09 17:42:36;;;;;;;25.70;11.02;;;3.00;99.90;;;;;;5087861;28;20040;-65
2023/03/09 17:45:02;;;;;;;26.55;11.75;;;2.90;99.90;;;;;;5079568;28;20180;-67
2023/03/09 17:47:30;;;;;;;26.77;11.10;;;2.90;99.90;;;;;;5070984;28;20795;-66
2023/03/09 17:49:57;;;;;;;26.70;11.25;;;2.90;99.90;;;;;;5087877;28;20485;-65
2023/03/09 17:52:24;;;;;;;28.25;12.32;;;2.90;99.90;;;;;;5092584;28;20024;-67
2023/03/09 17:54:50;;;;;;;25.35;11.05;;;2.90;99.90;;;;;;5089865;28;20016;-68
2023/03/09 17:57:16;;;;;;;23.80;10.65;;;2.80;99.90;;;;;;5077591;28;20396;-65
2023/03/09 17:59:42;;;;;;;22.50;11.77;;;2.80;99.90;;;;;;5070514;28;20021;-65
2023/03/09 18:02:12;;;;;;;30.92;13.60;;;2.80;99.90;;;;;;5094028;28;20032;-64
2023/03/09 18:04:37;;;;;;;23.00;11.60;;;2.80;99.90;;;;;;5094664;28;20032;-64
2023/03/09 18:07:03;;;;;;;25.05;11.18;;;2.80;99.90;;;;;;5082316;28;20035;-63
2023/03/09 18:09:28;;;;;;;21.58;11.68;;;2.80;99.90;;;;;;5060943;28;20542;-64
2023/03/09 18:11:54;;;;;;;20.98;10.77;;;2.80;99.90;;;;;;5073750;28;20027;-65
2023/03/09 18:14:20;;;;;;;24.05;11.35;;;2.80;99.90;;;;;;5086890;28;20016;-65
2023/03/09 18:16:46;;;;;;;20.42;10.00;;;2.80;99.90;;;;;;5055813;28;20039;-65
2023/03/09 18:19:12;;;;;;;24.63;10.20;;;2.80;99.90;;;;;;5073404;28;20426;-65
2023/03/09 18:21:38;;;;;;;20.85;10.18;;;2.80;99.90;;;;;;5073073;28;20025;-65
2023/03/09 18:24:04;;;;;;;22.88;9.95;;;2.80;99.90;;;;;;5073570;28;20025;-65
2023/03/09 18:26:33;;;;;;;21.40;10.68;;;2.80;99.90;;;;;;5073184;28;20133;-64
2023/03/09 18:29:00;;;;;;;25.50;11.45;;;2.80;99.90;;;;;;5073133;28;20099;-64
2023/03/09 18:31:27;;;;;;;25.60;11.35;;;2.80;99.90;;;;;;5074384;28;20020;-64
2023/03/09 18:33:54;;;;;;;25.02;11.05;;;2.80;99.90;;;;;;5088791;28;20460;-65
2023/03/09 18:36:20;;;;;;;23.77;11.07;;;2.80;99.90;;;;;;5093006;28;20077;-65
2023/03/09 18:38:47;;;;;;;25.88;11.10;;;2.80;99.90;;;;;;5075627;28;20981;-65
2023/03/09 18:41:13;;;;;;;24.65;11.45;;;2.80;99.90;;;;;;5075294;28;20020;-64
2023/03/09 18:43:39;;;;;;;26.75;11.38;;;2.70;99.90;;;;;;5074888;28;20044;-64
2023/03/09 18:46:05;;;;;;;22.65;10.38;;;2.60;99.90;;;;;;5092289;28;20067;-64
2023/03/09 18:48:32;;;;;;;21.13;9.18;;;2.60;99.90;;;;;;5084020;28;20082;-64
2023/03/09 18:50:58;;;;;;;23.58;10.95;;;2.60;99.90;;;;;;5072741;28;20423;-64
2023/03/09 18:53:26;;;;;;;23.02;10.68;;;2.60;99.90;;;;;;5054305;28;20020;-64
2023/03/09 18:55:57;;;;;;;26.20;11.10;;;2.60;99.90;;;;;;5072409;28;20051;-64
2023/03/09 18:58:23;;;;;;;30.45;11.60;;;2.50;99.90;;;;;;5072276;28;20031;-65
2023/03/09 19:00:49;;;;;;;29.17;12.32;;;2.60;99.90;;;;;;5074227;28;20082;-63
2023/03/09 19:03:15;;;;;;;30.33;12.00;;;2.70;99.90;;;;;;5082910;28;20107;-63
2023/03/09 19:05:41;;;;;;;29.88;13.93;;;2.70;99.90;;;;;;5072832;28;20039;-64
2023/03/09 19:08:07;;;;;;;21.27;11.27;;;2.70;99.90;;;;;;5071650;28;20487;-64
2023/03/09 19:10:33;;;;;;;22.75;11.68;;;2.70;99.90;;;;;;5054489;28;20032;-65
2023/03/09 19:12:59;;;;;;;23.30;11.60;;;2.70;99.90;;;;;;5072875;28;20024;-65
2023/03/09 19:15:25;;;;;;;25.70;11.15;;;2.70;99.90;;;;;;5072917;28;20090;-66
2023/03/09 19:17:51;;;;;;;21.83;10.48;;;2.80;99.90;;;;;;5089331;28;20020;-65
2023/03/09 19:20:17;;;;;;;24.70;10.75;;;2.80;99.90;;;;;;5073984;28;20043;-66
2023/03/09 19:22:42;;;;;;;25.70;11.15;;;2.80;99.90;;;;;;5092791;28;20514;-66
2023/03/09 19:25:08;;;;;;;24.38;11.35;;;2.80;99.90;;;;;;5092240;28;20113;-66
2023/03/09 19:27:34;;;;;;;23.98;10.48;;;2.80;99.90;;;;;;5092670;28;20515;-65
2023/03/09 19:29:59;;;;;;;22.45;9.98;;;2.80;99.90;;;;;;5074634;28;20063;-66
2023/03/09 19:32:27;;;;;;;23.33;10.05;;;2.80;99.90;;;;;;5075502;28;20108;-66
2023/03/09 19:34:54;;;;;;;25.42;11.38;;;2.70;99.90;;;;;;5072338;28;20029;-66
2023/03/09 19:37:19;;;;;;;25.25;11.35;;;2.70;99.90;;;;;;5054238;28;20115;-67
2023/03/09 19:39:45;;;;;;;23.95;10.38;;;2.70;99.90;;;;;;5071589;28;20508;-66
2023/03/09 19:42:11;;;;;;;21.50;10.15;;;2.70;99.90;;;;;;5071895;28;20028;-68
2023/03/09 19:44:36;;;;;;;20.75;10.35;;;2.60;99.90;;;;;;5070375;28;20055;-66
2023/03/09 22:31:18;;;;;;;15.15;7.38;;;2.20;99.90;;;;;;5088379;28;20377;-63
2023/03/09 22:33:45;;;;;;;15.02;7.45;;;2.20;99.90;;;;;;5088359;28;20412;-64
2023/03/09 22:36:13;;;;;;;15.30;8.43;;;2.30;99.90;;;;;;5088735;28;20029;-64
2023/03/09 22:38:40;;;;;;;15.95;7.35;;;2.40;99.90;;;;;;5088842;28;20046;-64
2023/03/09 22:41:08;;;;;;;15.27;7.72;;;2.50;99.90;;;;;;5070069;28;20027;-64
2023/03/09 22:43:35;;;;;;;16.30;7.80;;;2.60;99.90;;;;;;5088778;28;20024;-63
2023/03/09 22:46:03;;;;;;;15.43;8.13;;;2.60;99.90;;;;;;5089073;28;20445;-63
2023/03/09 22:48:29;;;;;;;14.60;7.78;;;2.70;99.90;;;;;;5087847;28;20032;-64
2023/03/09 22:50:55;;;;;;;19.58;8.57;;;2.70;99.90;;;;;;5080512;28;20238;-64
2023/03/09 22:53:21;;;;;;;13.02;7.18;;;2.80;99.90;;;;;;5067896;28;20275;-64
2023/03/09 22:55:48;;;;;;;15.25;7.80;;;2.80;99.90;;;;;;5067797;28;20529;-63
2023/03/09 22:58:15;;;;;;;15.98;8.30;;;2.80;99.90;;;;;;5068400;28;20021;-63
2023/03/09 23:00:42;;;;;;;19.00;8.95;;;2.80;99.90;;;;;;5068341;28;20146;-64
2023/03/09 23:03:09;;;;;;;18.30;10.40;;;2.80;99.90;;;;;;5067980;28;20066;-63
2023/03/09 23:05:39;;;;;;;19.23;9.43;;;2.90;99.90;;;;;;5068323;28;20025;-64
2023/03/09 23:08:05;;;;;;;20.65;9.98;;;2.90;99.90;;;;;;5068248;28;20158;-64
2023/03/09 23:10:31;;;;;;;14.65;7.43;;;2.90;99.90;;;;;;5067229;28;20239;-64
2023/03/09 23:12:57;;;;;;;16.17;8.10;;;2.90;99.90;;;;;;5068351;28;20058;-64
2023/03/09 23:15:23;;;;;;;16.20;8.25;;;2.90;99.90;;;;;;5068025;28;20094;-63
2023/03/09 23:17:51;;;;;;;15.77;7.40;;;2.90;99.90;;;;;;5049435;28;20020;-64
2023/03/09 23:20:17;;;;;;;17.17;8.25;;;2.90;99.90;;;;;;5067790;28;20051;-63
2023/03/09 23:22:43;;;;;;;18.05;8.75;;;2.90;99.90;;;;;;5049637;28;20016;-63
2023/03/09 23:25:09;;;;;;;19.30;8.43;;;2.90;99.90;;;;;;5050066;28;20111;-63
2023/03/09 23:27:35;;;;;;;14.85;8.07;;;2.90;99.90;;;;;;5067928;28;20374;-63
2023/03/09 23:30:00;;;;;;;15.55;7.65;;;2.90;99.90;;;;;;5067254;28;20052;-65
